createdAt,value
2016-12-26T00:00:19.747Z,1008.92
2016-12-26T00:01:30.656Z,1008.93
2016-12-26T00:02:41.285Z,1009.02
2016-12-26T00:03:51.503Z,1008.94
2016-12-26T00:05:02.432Z,1008.9
2016-12-26T00:06:13.341Z,1008.93
2016-12-26T00:07:24.246Z,1008.98
2016-12-26T00:08:35.223Z,1008.98
2016-12-26T00:09:45.785Z,1009.01
2016-12-26T00:10:56.362Z,1008.9
2016-12-26T00:12:06.923Z,1009.01
2016-12-26T00:13:17.484Z,1008.92
2016-12-26T00:14:28.445Z,1009.03
2016-12-26T00:15:39.011Z,1009.01
2016-12-26T00:16:49.568Z,1009
2016-12-26T00:18:00.469Z,1009.08
2016-12-26T00:19:11.374Z,1009.06
2016-12-26T00:20:22.327Z,1009.12
2016-12-26T00:21:32.885Z,1009.15
2016-12-26T00:22:43.450Z,1009.18
2016-12-26T00:23:54.015Z,1009.12
2016-12-26T00:25:04.932Z,1009.26
2016-12-26T00:26:15.889Z,1009.17
2016-12-26T00:27:26.450Z,1009.21
2016-12-26T00:28:37.012Z,1009.21
2016-12-26T00:29:47.921Z,1009.12
2016-12-26T00:30:58.483Z,1009.21
2016-12-26T00:32:09.239Z,1009.23
2016-12-26T00:33:20.148Z,1009.27
2016-12-26T00:34:31.054Z,1009.23
2016-12-26T00:35:41.619Z,1009.22
2016-12-26T00:36:52.176Z,1009.22
2016-12-26T00:38:03.129Z,1009.19
2016-12-26T00:39:13.691Z,1009.24
2016-12-26T00:40:24.595Z,1009.27
2016-12-26T00:41:35.161Z,1009.31
2016-12-26T00:42:45.718Z,1009.34
2016-12-26T00:43:56.675Z,1009.27
2016-12-26T00:45:07.584Z,1009.34
2016-12-26T00:46:18.490Z,1009.28
2016-12-26T00:47:29.050Z,1009.35
2016-12-26T00:48:39.964Z,1009.32
2016-12-26T00:49:50.585Z,1009.37
2016-12-26T00:51:01.146Z,1009.28
2016-12-26T00:52:11.711Z,1009.25
2016-12-26T00:53:22.617Z,1009.26
2016-12-26T00:54:32.862Z,1009.24
2016-12-26T00:55:43.815Z,1009.24
2016-12-26T00:56:54.720Z,1009.18
2016-12-26T00:58:05.281Z,1009.34
2016-12-26T00:59:16.195Z,1009.33
2016-12-26T01:00:27.100Z,1009.31
2016-12-26T01:01:38.057Z,1009.36
2016-12-26T01:02:48.622Z,1009.37
2016-12-26T01:03:59.183Z,1009.32
2016-12-26T01:05:09.748Z,1009.35
2016-12-26T01:06:20.321Z,1009.35
2016-12-26T01:07:31.291Z,1009.35
2016-12-26T01:08:42.200Z,1009.34
2016-12-26T01:09:53.114Z,1009.36
2016-12-26T01:11:04.018Z,1009.35
2016-12-26T01:12:14.932Z,1009.35
2016-12-26T01:13:25.897Z,1009.39
2016-12-26T01:14:36.462Z,1009.42
2016-12-26T01:15:47.031Z,1009.32
2016-12-26T01:16:57.936Z,1009.4
2016-12-26T01:18:08.522Z,1009.44
2016-12-26T01:19:19.134Z,1009.32
2016-12-26T01:20:30.048Z,1009.33
2016-12-26T01:21:40.613Z,1009.33
2016-12-26T01:22:51.522Z,1009.4
2016-12-26T01:24:01.399Z,1009.4
2016-12-26T01:25:12.353Z,1009.32
2016-12-26T01:26:23.269Z,1009.31
2016-12-26T01:27:34.215Z,1009.4
2016-12-26T01:28:44.784Z,1009.34
2016-12-26T01:29:55.689Z,1009.34
2016-12-26T01:31:06.447Z,1009.25
2016-12-26T01:32:17.015Z,1009.32
2016-12-26T01:33:27.585Z,1009.23
2016-12-26T01:34:38.502Z,1009.2
2016-12-26T01:35:49.415Z,1009.17
2016-12-26T01:37:00.375Z,1009.13
2016-12-26T01:38:10.934Z,1009.17
2016-12-26T01:39:21.849Z,1009.13
2016-12-26T01:40:32.756Z,1009.18
2016-12-26T01:41:43.316Z,1009.13
2016-12-26T01:42:53.934Z,1009.22
2016-12-26T01:44:04.503Z,1009.19
2016-12-26T01:45:15.408Z,1009.18
2016-12-26T01:46:25.273Z,1009.16
2016-12-26T01:47:36.207Z,1009.13
2016-12-26T01:48:46.820Z,1009.14
2016-12-26T01:49:57.737Z,1009.16
2016-12-26T01:51:08.326Z,1009.07
2016-12-26T01:52:19.231Z,1009.15
2016-12-26T01:53:29.797Z,1009.13
2016-12-26T01:54:40.413Z,1009.12
2016-12-26T01:55:51.327Z,1009.09
2016-12-26T01:57:02.228Z,1009
2016-12-26T01:58:13.161Z,1008.97
2016-12-26T01:59:24.066Z,1009.05
2016-12-26T02:00:34.676Z,1008.96
2016-12-26T02:01:45.589Z,1009
2016-12-26T02:02:56.497Z,1009
2016-12-26T02:04:07.423Z,1008.98
2016-12-26T02:05:18.332Z,1009.02
2016-12-26T02:06:29.285Z,1009.05
2016-12-26T02:07:40.190Z,1009.06
2016-12-26T02:08:50.764Z,1009.07
2016-12-26T02:10:01.665Z,1009
2016-12-26T02:11:12.574Z,1008.94
2016-12-26T02:12:23.191Z,1008.89
2016-12-26T02:13:34.096Z,1008.91
2016-12-26T02:14:45.001Z,1008.83
2016-12-26T02:15:55.923Z,1008.8
2016-12-26T02:17:06.828Z,1008.76
2016-12-26T02:18:17.789Z,1008.8
2016-12-26T02:19:28.353Z,1008.8
2016-12-26T02:20:39.280Z,1008.87
2016-12-26T02:21:50.201Z,1008.82
2016-12-26T02:23:01.105Z,1008.78
2016-12-26T02:24:12.067Z,1008.77
2016-12-26T02:25:22.968Z,1008.75
2016-12-26T02:26:33.533Z,1008.74
2016-12-26T02:27:44.446Z,1008.72
2016-12-26T02:28:55.359Z,1008.75
2016-12-26T02:30:06.368Z,1008.68
2016-12-26T02:31:16.921Z,1008.65
2016-12-26T02:32:27.832Z,1008.7
2016-12-26T02:33:38.395Z,1008.62
2016-12-26T02:34:49.304Z,1008.71
2016-12-26T02:35:59.920Z,1008.58
2016-12-26T02:37:10.486Z,1008.71
2016-12-26T02:38:21.387Z,1008.62
2016-12-26T02:39:32.292Z,1008.7
2016-12-26T02:40:43.201Z,1008.59
2016-12-26T02:41:53.866Z,1008.59
2016-12-26T02:43:04.423Z,1008.66
2016-12-26T02:44:15.329Z,1008.61
2016-12-26T02:45:26.241Z,1008.54
2016-12-26T02:46:37.146Z,1008.56
2016-12-26T02:47:47.759Z,1008.56
2016-12-26T02:48:58.326Z,1008.49
2016-12-26T02:50:09.258Z,1008.45
2016-12-26T02:51:19.819Z,1008.45
2016-12-26T02:52:30.752Z,1008.35
2016-12-26T02:53:41.709Z,1008.44
2016-12-26T02:54:52.617Z,1008.31
2016-12-26T02:56:03.531Z,1008.33
2016-12-26T02:57:14.436Z,1008.34
2016-12-26T02:58:24.653Z,1008.23
2016-12-26T02:59:35.614Z,1008.28
2016-12-26T03:00:46.519Z,1008.33
2016-12-26T03:01:57.428Z,1008.3
2016-12-26T03:03:07.637Z,1008.33
2016-12-26T03:04:18.206Z,1008.25
2016-12-26T03:05:28.819Z,1008.31
2016-12-26T03:06:39.381Z,1008.25
2016-12-26T03:07:49.954Z,1008.32
2016-12-26T03:09:00.523Z,1008.33
2016-12-26T03:10:11.428Z,1008.22
2016-12-26T03:11:22.045Z,1008.35
2016-12-26T03:12:32.607Z,1008.34
2016-12-26T03:13:43.172Z,1008.33
2016-12-26T03:14:53.736Z,1008.33
2016-12-26T03:16:04.646Z,1008.26
2016-12-26T03:17:15.607Z,1008.32
2016-12-26T03:18:26.516Z,1008.29
2016-12-26T03:19:37.433Z,1008.35
2016-12-26T03:20:47.994Z,1008.3
2016-12-26T03:21:58.904Z,1008.33
2016-12-26T03:23:09.913Z,1008.19
2016-12-26T03:24:20.822Z,1008.32
2016-12-26T03:25:31.395Z,1008.33
2016-12-26T03:26:42.300Z,1008.28
2016-12-26T03:27:53.241Z,1008.25
2016-12-26T03:29:03.863Z,1008.29
2016-12-26T03:30:14.776Z,1008.3
2016-12-26T03:31:25.685Z,1008.33
2016-12-26T03:32:36.586Z,1008.37
2016-12-26T03:33:47.155Z,1008.28
2016-12-26T03:34:58.112Z,1008.3
2016-12-26T03:36:09.058Z,1008.37
2016-12-26T03:37:19.655Z,1008.31
2016-12-26T03:38:30.216Z,1008.36
2016-12-26T03:39:40.777Z,1008.41
2016-12-26T03:40:51.395Z,1008.41
2016-12-26T03:42:01.620Z,1008.41
2016-12-26T03:43:12.193Z,1008.45
2016-12-26T03:44:22.754Z,1008.48
2016-12-26T03:45:33.319Z,1008.5
2016-12-26T03:46:43.945Z,1008.48
2016-12-26T03:47:54.874Z,1008.52
2016-12-26T03:49:05.435Z,1008.45
2016-12-26T03:50:16.004Z,1008.37
2016-12-26T03:51:26.914Z,1008.41
2016-12-26T03:52:37.871Z,1008.41
2016-12-26T03:53:48.436Z,1008.37
2016-12-26T03:54:59.337Z,1008.37
2016-12-26T03:56:10.251Z,1008.32
2016-12-26T03:57:21.156Z,1008.29
2016-12-26T03:58:31.817Z,1008.3
2016-12-26T03:59:42.722Z,1008.29
2016-12-26T04:00:53.287Z,1008.25
2016-12-26T04:02:04.190Z,1008.24
2016-12-26T04:03:14.758Z,1008.29
2016-12-26T04:04:25.383Z,1008.25
2016-12-26T04:05:35.608Z,1008.25
2016-12-26T04:06:46.542Z,1008.22
2016-12-26T04:07:57.455Z,1008.24
2016-12-26T04:09:08.360Z,1008.23
2016-12-26T04:10:18.978Z,1008.22
2016-12-26T04:11:29.539Z,1008.19
2016-12-26T04:12:40.448Z,1008.24
2016-12-26T04:13:51.013Z,1008.27
2016-12-26T04:15:01.582Z,1008.25
2016-12-26T04:16:12.192Z,1008.23
2016-12-26T04:17:22.756Z,1008.24
2016-12-26T04:18:33.662Z,1008.2
2016-12-26T04:19:44.259Z,1008.26
2016-12-26T04:20:55.160Z,1008.22
2016-12-26T04:22:05.774Z,1008.3
2016-12-26T04:23:16.683Z,1008.23
2016-12-26T04:24:27.592Z,1008.24
2016-12-26T04:25:38.505Z,1008.23
2016-12-26T04:26:49.062Z,1008.22
2016-12-26T04:28:00.023Z,1008.28
2016-12-26T04:29:10.941Z,1008.2
2016-12-26T04:30:21.846Z,1008.27
2016-12-26T04:31:32.411Z,1008.2
2016-12-26T04:32:43.348Z,1008.25
2016-12-26T04:33:54.334Z,1008.21
2016-12-26T04:35:05.239Z,1008.16
2016-12-26T04:36:15.796Z,1008.2
2016-12-26T04:37:26.352Z,1008.2
2016-12-26T04:38:36.911Z,1008.21
2016-12-26T04:39:47.520Z,1008.19
2016-12-26T04:40:58.093Z,1008.12
2016-12-26T04:42:08.658Z,1008.11
2016-12-26T04:43:19.572Z,1008.15
2016-12-26T04:44:30.141Z,1008.19
2016-12-26T04:45:40.762Z,1008.18
2016-12-26T04:46:51.368Z,1008.2
2016-12-26T04:48:01.937Z,1008.13
2016-12-26T04:49:12.502Z,1008.19
2016-12-26T04:50:23.079Z,1008.14
2016-12-26T04:51:34.049Z,1008.1
2016-12-26T04:52:44.953Z,1008.11
2016-12-26T04:53:55.527Z,1008.12
2016-12-26T04:55:05.744Z,1008.15
2016-12-26T04:56:16.649Z,1008.1
2016-12-26T04:57:27.608Z,1008.1
2016-12-26T04:58:38.180Z,1008.03
2016-12-26T04:59:48.749Z,1008.05
2016-12-26T05:00:59.654Z,1008.1
2016-12-26T05:02:10.212Z,1008.04
2016-12-26T05:03:21.165Z,1008.06
2016-12-26T05:04:31.738Z,1008.01
2016-12-26T05:05:42.643Z,1008.06
2016-12-26T05:06:53.541Z,1007.97
2016-12-26T05:08:04.474Z,1008.03
2016-12-26T05:09:15.583Z,1008.12
2016-12-26T05:10:26.156Z,1008
2016-12-26T05:11:37.066Z,1008.06
2016-12-26T05:12:48.011Z,1008.01
2016-12-26T05:13:58.569Z,1008.06
2016-12-26T05:15:09.529Z,1008.05
2016-12-26T05:16:20.091Z,1008.11
2016-12-26T05:17:31.000Z,1008.09
2016-12-26T05:18:41.914Z,1008.12
2016-12-26T05:19:52.847Z,1008.09
2016-12-26T05:21:03.464Z,1008.12
2016-12-26T05:22:14.397Z,1008.18
2016-12-26T05:23:24.958Z,1008.16
2016-12-26T05:24:35.519Z,1008.13
2016-12-26T05:25:45.404Z,1008.12
2016-12-26T05:26:56.362Z,1008.2
2016-12-26T05:28:07.271Z,1008.12
2016-12-26T05:29:18.176Z,1008.04
2016-12-26T05:30:28.747Z,1008.11
2016-12-26T05:31:39.659Z,1008.07
2016-12-26T05:32:50.608Z,1008.12
2016-12-26T05:34:01.170Z,1008.05
2016-12-26T05:35:12.074Z,1008.05
2016-12-26T05:36:22.632Z,1008.04
2016-12-26T05:37:33.201Z,1008.05
2016-12-26T05:38:43.826Z,1008.03
2016-12-26T05:39:54.735Z,1008.01
2016-12-26T05:41:05.645Z,1008.06
2016-12-26T05:42:16.550Z,1008.02
2016-12-26T05:43:27.115Z,1008.01
2016-12-26T05:44:38.072Z,1008.05
2016-12-26T05:45:48.626Z,1008.12
2016-12-26T05:46:59.535Z,1008
2016-12-26T05:48:10.440Z,1008
2016-12-26T05:49:20.997Z,1008.08
2016-12-26T05:50:31.610Z,1008.07
2016-12-26T05:51:42.176Z,1008.06
2016-12-26T05:52:52.745Z,1008.07
2016-12-26T05:54:03.654Z,1008.06
2016-12-26T05:55:14.567Z,1008.01
2016-12-26T05:56:25.532Z,1008
2016-12-26T05:57:36.126Z,1008.02
2016-12-26T05:58:47.039Z,1007.96
2016-12-26T05:59:57.624Z,1008.06
2016-12-26T06:01:08.186Z,1007.96
2016-12-26T06:02:19.179Z,1008.06
2016-12-26T06:03:29.740Z,1008
2016-12-26T06:04:40.301Z,1007.96
2016-12-26T06:05:51.210Z,1007.95
2016-12-26T06:07:02.115Z,1007.89
2016-12-26T06:08:12.724Z,1007.94
2016-12-26T06:09:23.630Z,1007.91
2016-12-26T06:10:34.191Z,1007.91
2016-12-26T06:11:45.096Z,1007.89
2016-12-26T06:12:56.009Z,1007.86
2016-12-26T06:14:06.962Z,1007.85
2016-12-26T06:15:17.520Z,1007.8
2016-12-26T06:16:28.092Z,1007.8
2016-12-26T06:17:39.006Z,1007.82
2016-12-26T06:18:49.599Z,1007.86
2016-12-26T06:20:00.212Z,1007.79
2016-12-26T06:21:10.778Z,1007.82
2016-12-26T06:22:21.691Z,1007.78
2016-12-26T06:23:32.596Z,1007.83
2016-12-26T06:24:43.162Z,1007.9
2016-12-26T06:25:54.126Z,1007.81
2016-12-26T06:27:05.040Z,1007.78
2016-12-26T06:28:15.953Z,1007.78
2016-12-26T06:29:26.858Z,1007.78
2016-12-26T06:30:37.423Z,1007.75
2016-12-26T06:31:48.381Z,1007.73
2016-12-26T06:32:59.286Z,1007.69
2016-12-26T06:34:10.195Z,1007.7
2016-12-26T06:35:20.756Z,1007.67
2016-12-26T06:36:31.349Z,1007.69
2016-12-26T06:37:42.466Z,1007.71
2016-12-26T06:38:53.371Z,1007.75
2016-12-26T06:40:03.937Z,1007.69
2016-12-26T06:41:14.498Z,1007.65
2016-12-26T06:42:25.402Z,1007.7
2016-12-26T06:43:36.364Z,1007.7
2016-12-26T06:44:47.277Z,1007.75
2016-12-26T06:45:58.190Z,1007.71
2016-12-26T06:47:08.767Z,1007.73
2016-12-26T06:48:18.989Z,1007.77
2016-12-26T06:49:29.802Z,1007.75
2016-12-26T06:50:40.743Z,1007.76
2016-12-26T06:51:51.648Z,1007.77
2016-12-26T06:53:02.213Z,1007.74
2016-12-26T06:54:13.123Z,1007.76
2016-12-26T06:55:24.080Z,1007.72
2016-12-26T06:56:34.989Z,1007.8
2016-12-26T06:57:45.558Z,1007.79
2016-12-26T06:58:56.119Z,1007.76
2016-12-26T07:00:06.680Z,1007.7
2016-12-26T07:01:17.633Z,1007.77
2016-12-26T07:02:28.550Z,1007.74
2016-12-26T07:03:39.456Z,1007.7
2016-12-26T07:04:50.025Z,1007.8
2016-12-26T07:06:00.939Z,1007.81
2016-12-26T07:07:11.896Z,1007.79
2016-12-26T07:08:22.461Z,1007.83
2016-12-26T07:09:33.370Z,1007.89
2016-12-26T07:10:44.283Z,1007.87
2016-12-26T07:11:54.848Z,1007.88
2016-12-26T07:13:05.513Z,1007.97
2016-12-26T07:14:15.382Z,1007.95
2016-12-26T07:15:26.291Z,1007.94
2016-12-26T07:16:36.857Z,1007.94
2016-12-26T07:17:47.424Z,1007.99
2016-12-26T07:18:58.034Z,1007.97
2016-12-26T07:20:08.992Z,1007.89
2016-12-26T07:21:19.769Z,1007.91
2016-12-26T07:22:30.958Z,1007.87
2016-12-26T07:23:43.771Z,1007.84
2016-12-26T07:24:54.973Z,1007.82
2016-12-26T07:26:06.060Z,1007.79
2016-12-26T07:27:16.622Z,1007.78
2016-12-26T07:28:27.528Z,1007.77
2016-12-26T07:29:38.434Z,1007.72
2016-12-26T07:30:49.046Z,1007.73
2016-12-26T07:31:59.616Z,1007.68
2016-12-26T07:33:10.189Z,1007.74
2016-12-26T07:34:21.094Z,1007.75
2016-12-26T07:35:31.671Z,1007.67
2016-12-26T07:36:42.280Z,1007.72
2016-12-26T07:37:53.190Z,1007.79
2016-12-26T07:39:03.755Z,1007.78
2016-12-26T07:40:14.684Z,1007.72
2016-12-26T07:41:25.045Z,1007.71
2016-12-26T07:42:36.010Z,1007.74
2016-12-26T07:43:46.607Z,1007.73
2016-12-26T07:44:57.044Z,1007.71
2016-12-26T07:46:08.093Z,1007.73
2016-12-26T07:47:19.003Z,1007.72
2016-12-26T07:48:29.620Z,1007.78
2016-12-26T07:49:40.182Z,1007.76
2016-12-26T07:50:50.742Z,1007.74
2016-12-26T07:52:01.651Z,1007.82
2016-12-26T07:53:12.561Z,1007.81
2016-12-26T07:54:23.529Z,1007.71
2016-12-26T07:55:34.091Z,1007.68
2016-12-26T07:56:45.000Z,1007.72
2016-12-26T07:57:55.907Z,1007.71
2016-12-26T07:59:06.470Z,1007.8
2016-12-26T08:00:17.087Z,1007.67
2016-12-26T08:01:27.997Z,1007.8
2016-12-26T08:02:38.594Z,1007.59
2016-12-26T08:03:49.151Z,1007.41
2016-12-26T08:04:59.713Z,1007.41
2016-12-26T08:06:10.665Z,1007.46
2016-12-26T08:07:21.599Z,1007.45
2016-12-26T08:08:32.508Z,1007.41
2016-12-26T08:09:43.417Z,1007.37
2016-12-26T08:10:54.322Z,1007.38
2016-12-26T08:12:04.943Z,1007.38
2016-12-26T08:13:15.856Z,1007.32
2016-12-26T08:14:26.778Z,1007.38
2016-12-26T08:15:37.343Z,1007.32
2016-12-26T08:16:48.256Z,1007.32
2016-12-26T08:17:58.869Z,1007.34
2016-12-26T08:19:09.778Z,1007.36
2016-12-26T08:20:20.687Z,1007.39
2016-12-26T08:21:31.596Z,1007.44
2016-12-26T08:22:42.162Z,1007.44
2016-12-26T08:23:53.128Z,1007.46
2016-12-26T08:25:03.692Z,1007.43
2016-12-26T08:26:14.261Z,1007.48
2016-12-26T08:27:24.830Z,1007.52
2016-12-26T08:28:35.395Z,1007.57
2016-12-26T08:29:46.360Z,1007.54
2016-12-26T08:30:56.926Z,1007.56
2016-12-26T08:32:07.491Z,1007.51
2016-12-26T08:33:18.052Z,1007.6
2016-12-26T08:34:28.989Z,1007.58
2016-12-26T08:35:39.627Z,1007.59
2016-12-26T08:36:50.544Z,1007.57
2016-12-26T08:38:00.757Z,1007.66
2016-12-26T08:39:11.665Z,1007.68
2016-12-26T08:40:22.572Z,1007.64
2016-12-26T08:41:33.184Z,1007.63
2016-12-26T08:42:43.753Z,1007.64
2016-12-26T08:43:54.659Z,1007.62
2016-12-26T08:45:05.568Z,1007.56
2016-12-26T08:46:16.481Z,1007.52
2016-12-26T08:47:27.093Z,1007.54
2016-12-26T08:48:37.995Z,1007.49
2016-12-26T08:49:48.901Z,1007.39
2016-12-26T08:50:59.810Z,1007.47
2016-12-26T08:52:10.719Z,1007.47
2016-12-26T08:53:21.336Z,1007.45
2016-12-26T08:54:32.249Z,1007.42
2016-12-26T08:55:42.813Z,1007.46
2016-12-26T08:56:53.720Z,1007.45
2016-12-26T08:58:04.633Z,1007.51
2016-12-26T08:59:15.598Z,1007.45
2016-12-26T09:00:26.519Z,1007.5
2016-12-26T09:01:37.436Z,1007.37
2016-12-26T09:02:48.345Z,1007.43
2016-12-26T09:03:59.291Z,1007.41
2016-12-26T09:05:10.008Z,1007.44
2016-12-26T09:06:20.565Z,1007.42
2016-12-26T09:07:31.478Z,1007.39
2016-12-26T09:08:42.388Z,1007.37
2016-12-26T09:09:53.296Z,1007.39
2016-12-26T09:11:04.366Z,1007.45
2016-12-26T09:12:14.931Z,1007.43
2016-12-26T09:13:25.844Z,1007.42
2016-12-26T09:14:36.761Z,1007.44
2016-12-26T09:15:47.678Z,1007.43
2016-12-26T09:16:58.631Z,1007.36
2016-12-26T09:18:09.541Z,1007.35
2016-12-26T09:19:20.450Z,1007.49
2016-12-26T09:20:31.367Z,1007.46
2016-12-26T09:21:41.928Z,1007.44
2016-12-26T09:22:52.541Z,1007.49
2016-12-26T09:24:03.451Z,1007.42
2016-12-26T09:25:14.360Z,1007.42
2016-12-26T09:26:25.273Z,1007.42
2016-12-26T09:27:36.191Z,1007.42
2016-12-26T09:28:46.855Z,1007.44
2016-12-26T09:29:57.420Z,1007.56
2016-12-26T09:31:08.342Z,1007.51
2016-12-26T09:32:18.911Z,1007.56
2016-12-26T09:33:29.512Z,1007.59
2016-12-26T09:34:40.465Z,1007.65
2016-12-26T09:35:51.370Z,1007.68
2016-12-26T09:37:01.931Z,1007.74
2016-12-26T09:38:12.848Z,1007.89
2016-12-26T09:39:23.782Z,1007.9
2016-12-26T09:40:34.743Z,1007.95
2016-12-26T09:41:45.308Z,1008.16
2016-12-26T09:42:56.222Z,1008.29
2016-12-26T09:44:07.130Z,1008.68
2016-12-26T09:45:17.700Z,1008.7
2016-12-26T09:46:28.317Z,1008.78
2016-12-26T09:47:39.230Z,1008.89
2016-12-26T09:48:49.803Z,1008.76
2016-12-26T09:50:00.709Z,1008.8
2016-12-26T09:51:11.614Z,1008.77
2016-12-26T09:52:22.231Z,1008.7
2016-12-26T09:53:32.836Z,1008.77
2016-12-26T09:54:43.741Z,1008.8
2016-12-26T09:55:54.311Z,1008.78
2016-12-26T09:57:04.888Z,1008.88
2016-12-26T09:58:15.845Z,1009
2016-12-26T09:59:26.763Z,1009.02
2016-12-26T10:00:37.683Z,1009.06
2016-12-26T10:01:48.617Z,1009.12
2016-12-26T10:02:59.178Z,1009.12
2016-12-26T10:04:09.784Z,1009
2016-12-26T10:05:20.352Z,1009.09
2016-12-26T10:06:30.921Z,1009.06
2016-12-26T10:07:41.495Z,1009.2
2016-12-26T10:08:52.396Z,1009.24
2016-12-26T10:10:03.345Z,1009.36
2016-12-26T10:11:13.906Z,1009.43
2016-12-26T10:12:24.819Z,1009.44
2016-12-26T10:13:35.748Z,1009.45
2016-12-26T10:14:46.309Z,1009.48
2016-12-26T10:15:57.290Z,1009.52
2016-12-26T10:17:07.860Z,1009.66
2016-12-26T10:18:18.421Z,1009.55
2016-12-26T10:19:28.982Z,1009.8
2016-12-26T10:20:39.895Z,1009.84
2016-12-26T10:21:50.508Z,1010.01
2016-12-26T10:23:01.417Z,1009.88
2016-12-26T10:24:12.339Z,1009.8
2016-12-26T10:25:23.252Z,1009.73
2016-12-26T10:26:34.157Z,1009.61
2016-12-26T10:27:45.126Z,1009.6
2016-12-26T10:28:55.692Z,1009.63
2016-12-26T10:30:06.277Z,1009.46
2016-12-26T10:31:16.834Z,1009.65
2016-12-26T10:32:27.739Z,1009.73
2016-12-26T10:33:38.352Z,1009.6
2016-12-26T10:34:48.942Z,1009.63
2016-12-26T10:35:59.518Z,1009.6
2016-12-26T10:37:10.428Z,1009.66
2016-12-26T10:38:21.341Z,1009.71
2016-12-26T10:39:31.950Z,1009.7
2016-12-26T10:40:42.855Z,1009.74
2016-12-26T10:41:53.412Z,1009.65
2016-12-26T10:43:04.318Z,1009.86
2016-12-26T10:44:15.233Z,1009.84
2016-12-26T10:45:26.224Z,1009.85
2016-12-26T10:46:36.801Z,1009.86
2016-12-26T10:47:47.018Z,1009.78
2016-12-26T10:48:57.928Z,1009.73
2016-12-26T10:50:08.489Z,1009.69
2016-12-26T10:51:19.454Z,1009.73
2016-12-26T10:52:30.359Z,1009.76
2016-12-26T10:53:41.297Z,1009.75
2016-12-26T10:54:52.201Z,1009.77
2016-12-26T10:56:03.115Z,1009.78
2016-12-26T10:57:14.076Z,1009.85
2016-12-26T10:58:24.981Z,1009.88
2016-12-26T10:59:35.542Z,1009.98
2016-12-26T11:00:46.450Z,1009.84
2016-12-26T11:01:57.360Z,1009.81
2016-12-26T11:03:08.330Z,1009.99
2016-12-26T11:04:18.919Z,1010.07
2016-12-26T11:05:29.484Z,1010.02
2016-12-26T11:06:40.437Z,1010.21
2016-12-26T11:07:51.015Z,1010.09
2016-12-26T11:09:01.627Z,1010.13
2016-12-26T11:10:12.193Z,1010.1
2016-12-26T11:11:23.098Z,1010.19
2016-12-26T11:12:33.665Z,1010.19
2016-12-26T11:13:44.237Z,1010.16
2016-12-26T11:14:55.222Z,1009.97
2016-12-26T11:16:06.127Z,1010.02
2016-12-26T11:17:17.056Z,1009.97
2016-12-26T11:18:27.969Z,1009.87
2016-12-26T11:19:38.538Z,1009.82
2016-12-26T11:20:49.148Z,1009.78
2016-12-26T11:21:59.709Z,1009.77
2016-12-26T11:23:10.614Z,1009.73
2016-12-26T11:24:21.531Z,1009.78
2016-12-26T11:25:31.420Z,1009.91
2016-12-26T11:26:42.378Z,1009.95
2016-12-26T11:27:52.943Z,1009.83
2016-12-26T11:29:03.852Z,1009.88
2016-12-26T11:30:14.424Z,1009.9
2016-12-26T11:31:25.338Z,1009.79
2016-12-26T11:32:36.343Z,1009.67
2016-12-26T11:33:46.917Z,1009.68
2016-12-26T11:34:57.902Z,1009.85
2016-12-26T11:36:08.815Z,1009.97
2016-12-26T11:37:19.724Z,1010.13
2016-12-26T11:38:30.346Z,1010.13
2016-12-26T11:39:40.903Z,1010.12
2016-12-26T11:40:51.484Z,1010.18
2016-12-26T11:42:02.385Z,1010.16
2016-12-26T11:43:12.942Z,1010.24
2016-12-26T11:44:23.903Z,1010.24
2016-12-26T11:45:34.826Z,1010.27
2016-12-26T11:46:45.742Z,1010.22
2016-12-26T11:47:56.659Z,1010.22
2016-12-26T11:49:07.567Z,1010.16
2016-12-26T11:50:18.182Z,1010.16
2016-12-26T11:51:29.094Z,1010.21
2016-12-26T11:52:39.676Z,1010.26
2016-12-26T11:53:50.585Z,1010.33
2016-12-26T11:55:01.490Z,1010.31
2016-12-26T11:56:12.119Z,1010.3
2016-12-26T11:57:22.676Z,1010.27
2016-12-26T11:58:32.909Z,1010.23
2016-12-26T11:59:43.463Z,1010.16
2016-12-26T12:00:54.032Z,1010.18
2016-12-26T12:02:04.657Z,1010.27
2016-12-26T12:03:15.222Z,1010.32
2016-12-26T12:04:26.135Z,1010.31
2016-12-26T12:05:36.704Z,1010.33
2016-12-26T12:06:47.613Z,1010.32
2016-12-26T12:07:58.578Z,1010.28
2016-12-26T12:09:09.488Z,1010.21
2016-12-26T12:10:20.057Z,1010.28
2016-12-26T12:11:30.618Z,1010.32
2016-12-26T12:12:41.540Z,1010.42
2016-12-26T12:13:52.156Z,1010.44
2016-12-26T12:15:02.718Z,1010.4
2016-12-26T12:16:13.271Z,1010.38
2016-12-26T12:17:24.176Z,1010.29
2016-12-26T12:18:35.094Z,1010.38
2016-12-26T12:19:45.711Z,1010.36
2016-12-26T12:20:56.304Z,1010.31
2016-12-26T12:22:06.869Z,1010.41
2016-12-26T12:23:17.778Z,1010.33
2016-12-26T12:24:28.687Z,1010.3
2016-12-26T12:25:39.296Z,1010.37
2016-12-26T12:26:49.858Z,1010.4
2016-12-26T12:28:00.775Z,1010.42
2016-12-26T12:29:11.688Z,1010.4
2016-12-26T12:30:22.601Z,1010.39
2016-12-26T12:31:33.215Z,1010.32
2016-12-26T12:32:43.424Z,1010.35
2016-12-26T12:33:53.993Z,1010.29
2016-12-26T12:35:04.558Z,1010.31
2016-12-26T12:36:15.879Z,1010.33
2016-12-26T12:37:27.249Z,1010.26
2016-12-26T12:38:38.578Z,1010.27
2016-12-26T12:39:49.487Z,1010.34
2016-12-26T12:41:00.396Z,1010.32
2016-12-26T12:42:10.965Z,1010.31
2016-12-26T12:43:21.923Z,1010.35
2016-12-26T12:44:32.476Z,1010.3
2016-12-26T12:45:43.393Z,1010.31
2016-12-26T12:46:54.306Z,1010.31
2016-12-26T12:48:04.879Z,1010.27
2016-12-26T12:49:15.832Z,1010.21
2016-12-26T12:50:26.406Z,1010.16
2016-12-26T12:51:36.998Z,1010.22
2016-12-26T12:52:47.552Z,1010.28
2016-12-26T12:53:58.113Z,1010.24
2016-12-26T12:55:08.383Z,1010.29
2016-12-26T12:56:18.943Z,1010.27
2016-12-26T12:57:29.513Z,1010.28
2016-12-26T12:58:40.418Z,1010.31
2016-12-26T12:59:51.331Z,1010.28
2016-12-26T13:01:01.944Z,1010.15
2016-12-26T13:02:12.853Z,1010.31
2016-12-26T13:03:23.754Z,1010.3
2016-12-26T13:04:34.324Z,1010.32
2016-12-26T13:05:45.237Z,1010.41
2016-12-26T13:06:56.190Z,1010.35
2016-12-26T13:08:06.747Z,1010.31
2016-12-26T13:09:17.692Z,1010.39
2016-12-26T13:10:28.613Z,1010.43
2016-12-26T13:11:39.174Z,1010.44
2016-12-26T13:12:49.784Z,1010.57
2016-12-26T13:14:00.686Z,1010.68
2016-12-26T13:15:11.606Z,1010.55
2016-12-26T13:16:22.540Z,1010.59
2016-12-26T13:17:33.108Z,1010.53
2016-12-26T13:18:44.065Z,1010.48
2016-12-26T13:19:54.623Z,1010.53
2016-12-26T13:21:05.564Z,1010.43
2016-12-26T13:22:16.129Z,1010.46
2016-12-26T13:23:27.034Z,1010.52
2016-12-26T13:24:37.643Z,1010.42
2016-12-26T13:25:48.549Z,1010.38
2016-12-26T13:26:59.114Z,1010.6
2016-12-26T13:28:10.019Z,1010.57
2016-12-26T13:29:20.924Z,1010.53
2016-12-26T13:30:31.877Z,1010.48
2016-12-26T13:31:42.439Z,1010.46
2016-12-26T13:32:52.996Z,1010.51
2016-12-26T13:34:03.909Z,1010.48
2016-12-26T13:35:14.475Z,1010.49
2016-12-26T13:36:25.095Z,1010.52
2016-12-26T13:37:35.653Z,1010.5
2016-12-26T13:38:46.558Z,1010.47
2016-12-26T13:39:57.467Z,1010.49
2016-12-26T13:41:08.376Z,1010.42
2016-12-26T13:42:18.985Z,1010.49
2016-12-26T13:43:29.551Z,1010.48
2016-12-26T13:44:40.464Z,1010.5
2016-12-26T13:45:51.396Z,1010.53
2016-12-26T13:47:01.958Z,1010.51
2016-12-26T13:48:12.915Z,1010.47
2016-12-26T13:49:23.816Z,1010.57
2016-12-26T13:50:34.386Z,1010.56
2016-12-26T13:51:45.290Z,1010.59
2016-12-26T13:52:55.848Z,1010.56
2016-12-26T13:54:06.806Z,1010.54
2016-12-26T13:55:17.718Z,1010.5
2016-12-26T13:56:28.635Z,1010.47
2016-12-26T13:57:39.188Z,1010.41
2016-12-26T13:58:50.102Z,1010.53
2016-12-26T14:00:01.059Z,1010.47
2016-12-26T14:01:11.284Z,1010.45
2016-12-26T14:02:21.845Z,1010.55
2016-12-26T14:03:32.754Z,1010.59
2016-12-26T14:04:43.660Z,1010.63
2016-12-26T14:05:54.269Z,1010.56
2016-12-26T14:07:05.202Z,1010.53
2016-12-26T14:08:15.763Z,1010.65
2016-12-26T14:09:26.325Z,1010.63
2016-12-26T14:10:36.914Z,1011
2016-12-26T14:11:47.918Z,1010.84
2016-12-26T14:12:58.831Z,1011.09
2016-12-26T14:14:09.400Z,1011.13
2016-12-26T14:15:20.309Z,1011.24
2016-12-26T14:16:30.870Z,1011.17
2016-12-26T14:17:41.828Z,1011.36
2016-12-26T14:18:52.740Z,1011.45
2016-12-26T14:20:03.649Z,1011.41